Time;durP1;ratioP1;P1;durP2;ratioP2;P2;SDS_P1;SDS_P2;PMS_P1;PMS_P2;Temp;Humidity;BMP_temperature;BMP_pressure;BME280_temperature;BME280_humidity;BME280_pressure;Samples;Min_cycle;Max_cycle;Signal;HPM_P1;HPM_P2
2021/03/24 00:02:08;;;;;;;23.83;15.07;;;;;;;2.60;71.11;99632.94;5089535;28;20092;-22
2021/03/24 00:04:33;;;;;;;26.88;16.80;;;;;;;2.71;70.89;99624.59;5089697;28;20028;-23
2021/03/24 00:06:59;;;;;;;23.80;15.57;;;;;;;2.48;70.71;99626.47;5089766;28;20027;-24
2021/03/24 00:09:24;;;;;;;37.28;21.38;;;;;;;2.26;71.81;99631.56;5089514;28;20031;-22
2021/03/24 00:11:50;;;;;;;64.55;28.90;;;;;;;2.00;71.88;99609.06;5089636;28;20032;-22
2021/03/24 00:14:15;;;;;;;38.75;21.52;;;;;;;2.35;72.42;99641.03;5071526;28;20111;-22
2021/03/24 00:16:41;;;;;;;34.50;20.23;;;;;;;2.40;71.71;99628.16;5089458;28;20093;-22
2021/03/24 00:19:06;;;;;;;29.58;18.20;;;;;;;2.44;72.20;99639.16;5071604;28;20032;-22
2021/03/24 00:21:32;;;;;;;33.00;19.90;;;;;;;2.67;71.22;99638.31;5071012;28;20488;-22
2021/03/24 00:23:58;;;;;;;33.55;19.48;;;;;;;2.45;72.46;99640.78;5071202;28;20024;-22
2021/03/24 00:26:23;;;;;;;28.88;17.67;;;;;;;2.34;72.68;99635.94;5089419;28;20040;-22
2021/03/24 00:28:52;;;;;;;25.90;15.32;;;;;;;2.55;72.38;99632.66;5089373;28;20020;-22
2021/03/24 00:31:18;;;;;;;25.90;17.13;;;;;;;2.72;71.34;99618.34;5089007;28;20032;-22
2021/03/24 00:33:43;;;;;;;27.25;16.38;;;;;;;2.81;71.49;99629.63;5089201;28;20028;-22
2021/03/24 00:36:09;;;;;;;27.10;16.42;;;;;;;2.83;70.39;99629.44;5089160;28;20039;-22
2021/03/24 00:38:34;;;;;;;25.23;15.80;;;;;;;2.72;71.37;99618.34;5089403;28;20063;-23
2021/03/24 00:41:00;;;;;;;24.88;16.20;;;;;;;2.81;70.83;99614.63;5071308;28;20028;-22
2021/03/24 00:43:26;;;;;;;25.15;15.82;;;;;;;2.48;71.03;99593.06;5088641;28;20027;-22
2021/03/24 00:45:51;;;;;;;22.33;14.70;;;;;;;2.36;71.07;99615.53;5070938;28;20040;-22
2021/03/24 00:48:25;;;;;;;26.92;17.17;;;;;;;2.39;71.70;99623.06;5070685;28;20099;-23
2021/03/24 00:50:50;;;;;;;45.17;23.75;;;;;;;2.39;71.52;99599.38;5088961;28;20032;-22
2021/03/24 00:53:16;;;;;;;25.65;15.45;;;;;;;2.45;71.39;99626.81;5088844;28;20127;-22
2021/03/24 00:55:42;;;;;;;21.23;14.52;;;;;;;2.37;71.98;99622.41;5089038;28;20032;-22
2021/03/24 00:58:07;;;;;;;23.25;14.35;;;;;;;2.08;72.17;99604.72;5088639;28;20803;-22
2021/03/24 01:00:36;;;;;;;22.65;14.25;;;;;;;2.18;71.58;99616.63;5088490;28;20044;-22
2021/03/24 01:03:02;;;;;;;26.00;15.05;;;;;;;2.18;72.67;99621.09;5088762;28;20052;-22
2021/03/24 01:05:27;;;;;;;21.52;14.30;;;;;;;2.15;71.18;99624.09;5088222;28;20080;-22
2021/03/24 01:07:55;;;;;;;20.73;13.75;;;;;;;1.99;71.62;99610.03;5070616;28;20032;-22
2021/03/24 01:10:29;;;;;;;21.27;13.90;;;;;;;2.00;71.61;99608.22;5088331;28;20020;-23
2021/03/24 01:12:55;;;;;;;22.38;13.82;;;;;;;2.05;71.65;99612.97;5088407;28;20457;-22
2021/03/24 01:15:21;;;;;;;22.67;13.68;;;;;;;2.17;70.69;99622.09;5088332;28;20024;-22
2021/03/24 01:17:46;;;;;;;20.60;12.60;;;;;;;2.09;70.88;99601.91;5088959;28;20032;-22
2021/03/24 01:20:13;;;;;;;22.48;13.52;;;;;;;2.13;71.18;99599.75;5088831;28;20078;-22
2021/03/24 01:22:39;;;;;;;20.33;13.20;;;;;;;2.17;70.82;99595.78;5088366;28;20083;-23
2021/03/24 01:25:05;;;;;;;20.88;12.80;;;;;;;1.98;71.00;99587.38;5070145;28;20407;-22
2021/03/24 01:27:30;;;;;;;20.10;13.25;;;;;;;2.03;70.36;99580.78;5088059;28;20031;-23
2021/03/24 01:29:56;;;;;;;21.17;13.35;;;;;;;2.31;71.00;99610.81;5088178;28;20020;-23
2021/03/24 01:32:21;;;;;;;21.38;13.10;;;;;;;2.40;69.47;99609.75;5088090;28;20028;-23
2021/03/24 01:34:47;;;;;;;19.20;12.98;;;;;;;2.41;69.64;99605.28;5087809;28;20024;-23
2021/03/24 01:37:12;;;;;;;18.85;12.55;;;;;;;2.46;69.22;99597.69;5087842;28;20050;-22
2021/03/24 01:39:39;;;;;;;22.10;12.32;;;;;;;2.34;69.35;99597.28;5087868;28;20032;-22
2021/03/24 01:42:06;;;;;;;20.95;12.70;;;;;;;2.30;69.20;99582.84;5087963;28;20032;-23
2021/03/24 01:44:31;;;;;;;21.27;12.88;;;;;;;2.44;69.48;99601.50;5087562;28;20025;-22
2021/03/24 01:46:57;;;;;;;20.75;13.57;;;;;;;2.42;70.00;99599.03;5087938;28;20031;-22
2021/03/24 01:49:27;;;;;;;22.60;13.20;;;;;;;2.38;69.39;99597.75;5087473;28;20450;-22
2021/03/24 01:51:55;;;;;;;23.20;14.73;;;;;;;2.29;70.09;99599.66;5087593;28;20032;-22
2021/03/24 01:54:33;;;;;;;19.08;12.90;;;;;;;2.35;70.02;99603.34;5069498;28;20081;-23
2021/03/24 01:57:04;;;;;;;18.88;12.65;;;;;;;2.16;70.59;99594.13;5087900;28;20347;-22
2021/03/24 01:59:30;;;;;;;21.33;12.82;;;;;;;2.29;70.94;99591.75;5069519;28;20036;-23
2021/03/24 02:01:55;;;;;;;22.48;14.18;;;;;;;2.62;70.24;99591.47;5069242;28;20447;-23
2021/03/24 02:04:21;;;;;;;19.30;12.43;;;;;;;2.50;69.83;99600.78;5087691;28;20407;-22
2021/03/24 02:07:00;;;;;;;24.92;14.63;;;;;;;2.47;70.94;99609.03;5069706;28;20082;-21
2021/03/24 02:09:32;;;;;;;21.25;13.82;;;;;;;2.45;71.16;99611.81;5053233;28;20426;-22
2021/03/24 02:12:01;;;;;;;28.85;15.68;;;;;;;2.65;69.97;99556.88;5087488;28;20028;-23
2021/03/24 02:14:50;;;;;;;22.35;15.00;;;;;;;2.95;70.19;99599.84;5053204;28;20460;-22
2021/03/24 02:17:16;;;;;;;18.70;13.25;;;;;;;3.01;69.06;99593.06;5074273;28;20083;-23
2021/03/24 02:19:52;;;;;;;20.42;13.50;;;;;;;3.06;68.72;99588.03;5069543;28;20089;-22
2021/03/24 02:22:22;;;;;;;21.05;14.27;;;;;;;2.89;69.12;99583.97;5068735;28;20043;-23
2021/03/24 02:25:11;;;;;;;21.00;13.70;;;;;;;2.98;69.75;99598.66;5069033;28;20082;-22
2021/03/24 02:27:38;;;;;;;21.95;14.02;;;;;;;2.85;69.99;99580.88;5060781;28;20449;-22
2021/03/24 02:30:06;;;;;;;24.60;14.37;;;;;;;2.71;70.21;99600.09;5052859;28;20050;-22
2021/03/24 02:32:33;;;;;;;22.17;14.30;;;;;;;2.68;70.70;99574.97;5068894;28;20479;-22
2021/03/24 02:35:00;;;;;;;22.92;14.95;;;;;;;2.68;70.10;99593.38;5069125;28;20028;-22
2021/03/24 02:37:26;;;;;;;20.27;14.23;;;;;;;2.64;69.84;99573.69;5052659;28;20042;-23
2021/03/24 02:39:51;;;;;;;25.90;14.65;;;;;;;2.72;69.89;99589.41;5052383;28;20032;-23
2021/03/24 02:42:17;;;;;;;23.60;14.75;;;;;;;2.74;69.91;99584.78;5069215;28;20028;-23
2021/03/24 02:44:42;;;;;;;22.90;15.02;;;;;;;2.70;70.58;99604.56;5052395;28;20032;-22
2021/03/24 02:47:08;;;;;;;23.73;15.15;;;;;;;2.45;71.27;99577.63;5052537;28;20412;-23
2021/03/24 02:49:34;;;;;;;23.33;14.80;;;;;;;2.60;71.14;99590.81;5069068;28;20111;-23
2021/03/24 02:51:59;;;;;;;21.65;14.20;;;;;;;2.77;70.11;99576.50;5052170;28;20035;-22
2021/03/24 02:54:27;;;;;;;20.30;14.43;;;;;;;2.68;70.46;99587.31;5052149;28;20118;-22
2021/03/24 02:56:53;;;;;;;21.13;14.90;;;;;;;2.67;70.11;99580.41;5052233;28;20046;-22
2021/03/24 02:59:19;;;;;;;23.00;14.82;;;;;;;2.76;69.39;99580.13;5086685;28;20044;-22
2021/03/24 03:02:12;;;;;;;30.73;18.48;;;;;;;2.59;69.38;99565.47;5052219;28;20040;-22
2021/03/24 03:04:39;;;;;;;29.52;17.25;;;;;;;2.53;69.64;99574.09;5053792;28;20479;-23
2021/03/24 03:07:14;;;;;;;24.48;15.88;;;;;;;2.50;69.99;99579.72;5052471;28;20418;-22
2021/03/24 03:09:49;;;;;;;25.38;14.80;;;;;;;2.78;69.99;99578.16;5053270;28;20077;-22
2021/03/24 03:12:20;;;;;;;22.65;14.82;;;;;;;3.09;69.08;99590.31;5069542;28;20122;-22
2021/03/24 03:15:08;;;;;;;21.65;13.98;;;;;;;3.27;68.42;99587.34;5087134;28;20043;-22
2021/03/24 03:17:35;;;;;;;20.88;14.43;;;;;;;3.30;67.96;99580.88;5054552;28;20047;-22
2021/03/24 03:20:11;;;;;;;21.48;14.20;;;;;;;3.22;68.25;99566.78;5069102;28;20047;-22
2021/03/24 03:22:41;;;;;;;21.13;13.35;;;;;;;3.30;68.20;99583.50;5052771;28;20035;-23
2021/03/24 03:25:22;;;;;;;19.55;13.88;;;;;;;3.22;68.07;99566.78;5052365;28;20114;-23
2021/03/24 03:27:49;;;;;;;22.85;14.13;;;;;;;3.10;68.69;99555.06;5070278;28;20576;-23
2021/03/24 03:30:15;;;;;;;20.25;14.13;;;;;;;3.18;68.14;99578.69;5086886;28;20028;-22
2021/03/24 03:32:42;;;;;;;20.67;14.32;;;;;;;3.24;68.97;99592.16;5070031;28;20028;-23
2021/03/24 03:35:11;;;;;;;22.55;15.60;;;;;;;3.15;69.21;99589.59;5072316;28;20039;-23
2021/03/24 03:37:36;;;;;;;21.02;13.63;;;;;;;3.18;69.02;99583.94;5071953;28;20028;-22
2021/03/24 03:40:03;;;;;;;23.65;15.00;;;;;;;3.18;69.05;99586.59;5072242;28;20020;-22
2021/03/24 03:42:28;;;;;;;20.55;14.27;;;;;;;3.04;70.31;99563.69;5055566;28;20089;-22
2021/03/24 03:44:54;;;;;;;23.77;15.30;;;;;;;3.11;69.11;99577.78;5055295;28;20035;-23
2021/03/24 03:47:20;;;;;;;26.80;17.17;;;;;;;3.01;69.64;99574.63;5055095;28;20036;-22
2021/03/24 03:49:45;;;;;;;24.10;16.65;;;;;;;2.94;69.95;99571.06;5071923;28;20020;-23
2021/03/24 03:52:17;;;;;;;25.40;16.75;;;;;;;3.19;68.56;99585.59;5071783;28;20032;-22
2021/03/24 03:54:50;;;;;;;25.85;16.92;;;;;;;3.25;69.00;99591.13;5090065;28;20408;-22
2021/03/24 03:57:35;;;;;;;26.00;16.17;;;;;;;3.28;68.50;99590.78;5071449;28;20107;-22
2021/03/24 04:00:14;;;;;;;23.52;15.88;;;;;;;3.15;69.78;99599.34;5055742;28;20088;-23
2021/03/24 04:03:10;;;;;;;26.67;18.67;;;;;;;3.19;70.02;99600.59;5072371;28;20500;-22
2021/03/24 04:05:39;;;;;;;31.85;21.15;;;;;;;3.18;69.41;99605.03;5087493;28;20034;-23
2021/03/24 04:08:15;;;;;;;30.15;20.00;;;;;;;2.87;70.29;99565.69;5055224;28;20036;-22
2021/03/24 04:10:54;;;;;;;41.30;26.00;;;;;;;3.05;70.32;99599.59;5072187;28;20028;-23
2021/03/24 04:13:21;;;;;;;45.33;28.33;;;;;;;2.92;70.54;99600.22;5072814;28;20024;-23
2021/03/24 04:15:52;;;;;;;40.67;23.42;;;;;;;3.01;70.49;99611.50;5071458;28;20027;-23
2021/03/24 04:18:24;;;;;;;46.95;30.83;;;;;;;3.01;70.88;99622.03;5089602;28;20020;-23
2021/03/24 04:20:51;;;;;;;31.05;17.60;;;;;;;3.00;70.81;99612.47;5055289;28;20028;-22
2021/03/24 04:23:17;;;;;;;25.17;16.45;;;;;;;2.67;71.42;99609.34;5054679;28;20093;-22
2021/03/24 04:25:49;;;;;;;29.20;18.40;;;;;;;2.43;71.51;99598.03;5054788;28;20031;-22
2021/03/24 04:28:17;;;;;;;44.40;22.98;;;;;;;2.29;72.45;99604.91;5055159;28;20032;-22
2021/03/24 04:30:51;;;;;;;46.28;23.48;;;;;;;2.59;72.94;99616.31;5054563;28;20039;-22
2021/03/24 04:33:17;;;;;;;36.75;20.17;;;;;;;2.72;71.43;99605.19;5054456;28;20079;-23
2021/03/24 04:35:43;;;;;;;38.65;21.45;;;;;;;2.96;71.33;99624.38;5071033;28;20502;-22
2021/03/24 04:38:18;;;;;;;44.42;22.80;;;;;;;2.89;71.21;99620.84;5071111;28;20032;-23
2021/03/24 04:40:48;;;;;;;40.47;24.00;;;;;;;2.68;71.64;99618.91;5055033;28;20827;-23
2021/03/24 04:43:18;;;;;;;35.75;20.95;;;;;;;2.61;72.76;99634.56;5053979;28;20084;-22
2021/03/24 04:45:45;;;;;;;29.20;19.27;;;;;;;2.49;72.68;99630.72;5052955;28;20028;-22
2021/03/24 04:48:28;;;;;;;29.45;18.13;;;;;;;2.33;73.31;99606.19;5069285;28;20470;-23
2021/03/24 04:50:56;;;;;;;28.45;18.58;;;;;;;2.57;72.78;99633.28;5055975;28;20028;-23
2021/03/24 04:53:21;;;;;;;;;;;;;;;2.71;73.30;99642.22;5054765;28;20039;-22
2021/03/24 04:55:47;;;;;;;31.33;19.63;;;;;;;2.88;72.04;99641.09;5089021;28;19912;-22
2021/03/24 04:58:25;;;;;;;44.00;34.35;;;;;;;3.03;71.57;99624.50;5070636;28;20028;-22
2021/03/24 05:00:51;;;;;;;;;;;;;;;3.14;70.53;99642.47;5070877;28;20565;-22
2021/03/24 05:03:22;;;;;;;68.90;42.30;;;;;;;3.08;70.43;99641.38;5070242;28;19920;-22
2021/03/24 05:05:51;;;;;;;106.93;62.17;;;;;;;3.25;69.62;99641.19;5070367;28;20028;-22
2021/03/24 05:08:23;;;;;;;70.95;42.67;;;;;;;3.46;69.31;99649.22;5070312;28;20170;-22
2021/03/24 05:10:48;;;;;;;177.77;79.05;;;;;;;2.99;70.37;99653.00;5088422;28;20028;-23
2021/03/24 05:13:27;;;;;;;270.63;111.03;;;;;;;2.84;70.80;99657.41;5053557;28;20020;-22
2021/03/24 05:16:27;;;;;;;139.32;66.95;;;;;;;2.81;72.03;99661.22;5070451;28;20035;-22
2021/03/24 05:18:54;;;;;;;67.88;47.13;;;;;;;2.66;72.14;99658.56;5038116;28;20044;-23
2021/03/24 05:21:29;;;;;;;62.90;43.35;;;;;;;2.52;73.53;99648.81;5053586;28;20050;-23
2021/03/24 05:23:57;;;;;;;57.88;38.42;;;;;;;2.52;73.63;99631.19;5054096;28;20032;-22
2021/03/24 05:26:27;;;;;;;195.73;102.13;;;;;;;2.45;73.99;99646.03;5070135;28;20028;-22
2021/03/24 05:28:53;;;;;;;33.30;21.88;;;;;;;2.83;73.48;99653.16;5054020;28;20391;-22
2021/03/24 05:31:21;;;;;;;67.10;46.72;;;;;;;2.89;72.50;99626.09;5069861;28;20056;-23
2021/03/24 05:33:48;;;;;;;70.35;43.58;;;;;;;3.01;72.10;99657.09;5069930;28;20032;-22
2021/03/24 05:36:22;;;;;;;43.85;27.88;;;;;;;2.90;73.68;99659.34;5053220;28;20040;-23
2021/03/24 05:38:51;;;;;;;28.10;18.80;;;;;;;2.73;73.93;99651.56;5070037;28;20055;-23
2021/03/24 05:41:36;;;;;;;39.90;24.88;;;;;;;2.71;74.46;99653.56;5069681;28;20881;-23
2021/03/24 05:44:24;;;;;;;29.48;21.63;;;;;;;2.68;73.91;99672.38;5053412;28;20081;-22
2021/03/24 05:47:25;;;;;;;55.07;36.40;;;;;;;2.49;74.94;99678.91;5069459;28;20028;-23
2021/03/24 05:50:02;;;;;;;34.42;21.35;;;;;;;2.24;76.12;99680.91;5032601;28;20276;-23
2021/03/24 05:52:40;;;;;;;61.13;35.88;;;;;;;2.19;76.79;99678.78;5087758;28;20055;-22
2021/03/24 05:55:17;;;;;;;173.27;84.97;;;;;;;2.12;77.39;99687.56;5087585;28;20038;-22
2021/03/24 05:58:20;;;;;;;94.50;51.63;;;;;;;2.05;77.64;99691.88;5087148;28;20042;-22
2021/03/24 06:01:06;;;;;;;304.40;153.57;;;;;;;1.92;77.82;99681.91;5087491;28;20036;-22
2021/03/24 06:04:07;;;;;;;170.88;85.38;;;;;;;1.85;78.12;99686.22;5087145;28;20117;-22
2021/03/24 06:06:54;;;;;;;45.80;25.35;;;;;;;2.25;76.32;99686.97;5069482;28;20093;-22
2021/03/24 06:09:23;;;;;;;85.18;50.17;;;;;;;2.27;75.80;99685.81;5087671;28;20677;-22
2021/03/24 06:12:06;;;;;;;86.20;53.72;;;;;;;2.33;76.33;99706.19;5087315;28;20569;-22
2021/03/24 06:15:11;;;;;;;226.10;134.50;;;;;;;2.39;75.21;99705.47;5087823;28;20036;-22
2021/03/24 06:17:49;;;;;;;59.58;34.92;;;;;;;2.69;73.88;99713.50;5087541;28;20073;-22
2021/03/24 06:20:43;;;;;;;32.35;20.75;;;;;;;2.38;73.40;99688.03;5087358;28;20024;-22
2021/03/24 06:23:13;;;;;;;112.78;64.60;;;;;;;1.94;75.95;99708.84;5068980;28;20032;-22
2021/03/24 06:25:46;;;;;;;164.63;84.43;;;;;;;2.05;75.14;99702.41;5087256;28;20552;-22
2021/03/24 06:28:24;;;;;;;161.73;85.78;;;;;;;1.59;77.27;99718.84;5069447;28;20031;-22
2021/03/24 06:30:58;;;;;;;50.58;32.20;;;;;;;1.70;76.75;99722.94;5087540;28;20047;-22
2021/03/24 06:33:36;;;;;;;83.18;46.03;;;;;;;1.80;76.47;99723.53;5069815;28;20027;-22
2021/03/24 06:36:55;;;;;;;38.05;24.70;;;;;;;2.00;74.64;99716.03;5087138;28;20105;-22
2021/03/24 06:39:45;;;;;;;33.58;21.80;;;;;;;1.92;75.89;99724.81;5004707;28;20034;-22
2021/03/24 06:42:47;;;;;;;48.13;38.60;;;;;;;2.14;75.14;99732.91;4988610;28;20034;-22
2021/03/24 06:45:37;;;;;;;44.20;34.83;;;;;;;2.15;74.75;99718.78;5066909;28;20036;-22
2021/03/24 06:48:40;;;;;;;31.15;24.23;;;;;;;2.53;74.10;99742.56;5087091;28;20484;-23
2021/03/24 06:51:17;;;;;;;33.88;25.98;;;;;;;2.60;73.88;99760.13;5086947;28;20111;-22
2021/03/24 06:54:20;;;;;;;28.77;19.17;;;;;;;2.58;73.94;99756.84;5087124;28;20519;-23
2021/03/24 06:57:04;;;;;;;24.75;16.13;;;;;;;2.33;74.34;99761.44;5087094;28;20164;-23
2021/03/24 07:00:01;;;;;;;26.98;17.35;;;;;;;2.24;74.99;99770.34;5086909;28;20039;-22
2021/03/24 07:02:53;;;;;;;25.23;18.15;;;;;;;1.72;75.19;99760.38;5065541;28;20056;-23
2021/03/24 07:05:47;;;;;;;21.08;12.93;;;;;;;1.57;76.09;99792.63;5065723;28;20788;-22
2021/03/24 07:08:33;;;;;;;26.50;14.05;;;;;;;1.34;77.22;99794.28;5068893;28;20408;-22
2021/03/24 07:11:22;;;;;;;43.60;19.75;;;;;;;1.05;78.37;99800.84;5069604;28;20086;-22
2021/03/24 07:14:10;;;;;;;39.28;20.65;;;;;;;0.79;78.88;99817.53;5069175;28;20416;-22
2021/03/24 07:16:46;;;;;;;26.60;15.00;;;;;;;0.52;79.30;99823.88;5070604;28;20063;-22
2021/03/24 07:19:24;;;;;;;21.58;12.30;;;;;;;0.33;80.33;99827.59;5069070;28;20025;-22
2021/03/24 07:22:20;;;;;;;14.30;7.67;;;;;;;0.03;81.37;99830.75;5070516;28;20035;-22
2021/03/24 07:25:04;;;;;;;21.65;11.85;;;;;;;0.09;81.67;99848.47;5070398;28;20386;-22
2021/03/24 07:27:42;;;;;;;19.77;10.07;;;;;;;-0.12;80.94;99851.47;5069813;28;20028;-22
2021/03/24 07:30:14;;;;;;;29.75;14.88;;;;;;;0.04;80.90;99854.19;5069757;28;20137;-22
2021/03/24 07:32:58;;;;;;;61.33;46.40;;;;;;;0.13;80.84;99855.88;5070675;28;20629;-22
2021/03/24 07:35:29;;;;;;;57.92;40.75;;;;;;;0.26;79.80;99857.25;5068966;28;20039;-22
2021/03/24 07:38:10;;;;;;;27.65;16.85;;;;;;;0.43;78.88;99873.84;5068905;28;20024;-21
2021/03/24 07:40:58;;;;;;;40.53;24.50;;;;;;;0.29;78.46;99847.25;5070194;28;20131;-23
2021/03/24 07:44:01;;;;;;;17.73;10.00;;;;;;;0.16;78.95;99875.72;5069623;28;20139;-23
2021/03/24 07:46:30;;;;;;;29.33;16.92;;;;;;;0.44;77.86;99896.50;5069925;28;20029;-22
2021/03/24 07:49:30;;;;;;;20.30;12.57;;;;;;;0.35;78.75;99899.09;5068553;28;20040;-22
2021/03/24 07:52:29;;;;;;;12.45;6.82;;;;;;;0.48;76.91;99889.97;5068545;28;20028;-22
2021/03/24 07:55:12;;;;;;;23.25;11.20;;;;;;;0.48;76.70;99909.16;5068611;28;20036;-23
2021/03/24 07:57:49;;;;;;;70.60;27.92;;;;;;;0.26;78.05;99905.25;5068537;28;20036;-23
2021/03/24 08:00:41;;;;;;;23.67;13.57;;;;;;;0.05;77.63;99889.09;5069770;28;20845;-22
2021/03/24 08:03:42;;;;;;;21.10;12.50;;;;;;;0.29;77.27;99906.78;5068147;28;20128;-22
2021/03/24 08:06:18;;;;;;;43.20;26.63;;;;;;;0.29;77.52;99907.59;5054461;28;20032;-23
2021/03/24 08:08:49;;;;;;;37.60;21.70;;;;;;;0.68;75.63;99930.72;5068587;28;20476;-21
2021/03/24 08:11:54;;;;;;;46.92;28.90;;;;;;;0.72;76.28;99929.44;5069522;28;20063;-22
2021/03/24 08:14:32;;;;;;;53.63;36.42;;;;;;;1.09;75.19;99925.59;5068214;28;20039;-21
2021/03/24 08:17:06;;;;;;;26.70;15.52;;;;;;;1.09;74.63;99937.91;5068145;28;20122;-23
2021/03/24 08:19:40;;;;;;;23.73;12.15;;;;;;;1.12;75.52;99948.91;5068295;28;20044;-22
2021/03/24 08:22:43;;;;;;;54.40;28.50;;;;;;;1.11;74.65;99957.78;5052127;28;20126;-23
2021/03/24 08:25:47;;;;;;;39.08;20.83;;;;;;;1.20;75.33;99956.81;5069011;28;20029;-21
2021/03/24 08:28:18;;;;;;;27.42;16.13;;;;;;;1.32;74.29;99969.66;5059925;28;20044;-22
2021/03/24 08:31:02;;;;;;;15.68;9.15;;;;;;;1.13;75.07;99961.06;5069357;28;20024;-21
2021/03/24 08:33:50;;;;;;;27.50;14.07;;;;;;;0.66;77.22;99952.88;5068755;28;20064;-22
2021/03/24 08:36:49;;;;;;;18.50;9.23;;;;;;;0.60;77.00;99960.38;5067760;28;20034;-22
2021/03/24 08:39:52;;;;;;;15.25;9.18;;;;;;;0.68;77.00;99956.97;5068669;28;20033;-21
2021/03/24 08:42:20;;;;;;;14.38;7.80;;;;;;;0.71;76.53;99968.94;5069024;28;20043;-22
2021/03/24 08:44:48;;;;;;;14.20;8.25;;;;;;;1.10;75.51;99966.63;5068688;28;20033;-22
2021/03/24 08:47:16;;;;;;;11.60;7.47;;;;;;;1.38;74.67;99953.25;5067541;28;20039;-23
2021/03/24 08:49:46;;;;;;;15.35;10.68;;;;;;;1.63;71.75;99961.16;5067457;28;20170;-22
2021/03/24 08:52:44;;;;;;;14.02;7.93;;;;;;;1.70;71.89;99952.44;5067470;28;20401;-22
2021/03/24 08:55:29;;;;;;;10.32;6.05;;;;;;;2.03;71.09;99988.44;5067393;28;20029;-24
2021/03/24 08:58:16;;;;;;;18.73;10.90;;;;;;;2.26;70.36;99994.66;5068485;28;20032;-22
2021/03/24 09:00:58;;;;;;;11.50;7.10;;;;;;;2.04;68.75;99996.16;5068431;28;20642;-23
2021/03/24 09:03:29;;;;;;;11.45;7.00;;;;;;;2.20;69.38;100006.66;5051645;28;20059;-23
2021/03/24 09:06:32;;;;;;;9.68;6.03;;;;;;;1.98;70.45;100013.44;5068392;28;20039;-22
2021/03/24 09:09:27;;;;;;;14.85;10.75;;;;;;;1.77;71.28;100020.97;5068385;28;20024;-22
2021/03/24 09:12:02;;;;;;;12.30;6.28;;;;;;;1.61;72.26;100013.88;5031206;28;20049;-22
2021/03/24 09:14:31;;;;;;;11.60;5.57;;;;;;;1.57;72.01;99994.16;5068670;28;20041;-22
2021/03/24 09:17:08;;;;;;;11.52;6.82;;;;;;;1.78;70.91;100017.38;5067057;28;20391;-21
2021/03/24 09:19:55;;;;;;;15.97;7.83;;;;;;;1.93;71.44;100031.50;5068079;28;20063;-22
2021/03/24 09:22:24;;;;;;;12.50;8.02;;;;;;;2.12;70.26;100037.44;5066639;28;20056;-22
2021/03/24 09:25:11;;;;;;;12.77;7.10;;;;;;;1.99;72.34;100036.09;5067861;28;20035;-22
2021/03/24 09:28:14;;;;;;;8.88;6.03;;;;;;;1.72;72.72;100018.84;5068009;28;20040;-21
2021/03/24 09:31:04;;;;;;;8.23;5.00;;;;;;;1.47;72.86;100015.34;5066558;28;20067;-22
2021/03/24 09:33:44;;;;;;;9.02;5.78;;;;;;;1.48;75.11;100014.34;5067804;28;20494;-22
2021/03/24 09:36:45;;;;;;;8.27;5.35;;;;;;;1.47;72.93;100004.84;5068280;28;20060;-22
2021/03/24 09:39:24;;;;;;;8.70;5.32;;;;;;;1.41;73.69;100010.75;5067787;28;20492;-22
2021/03/24 09:42:18;;;;;;;9.48;5.82;;;;;;;1.78;73.57;100018.19;5067781;28;20025;-21
2021/03/24 09:45:08;;;;;;;12.75;7.40;;;;;;;2.11;72.50;100006.84;5062581;28;20044;-22
2021/03/24 09:47:43;;;;;;;10.55;6.22;;;;;;;2.37;73.38;100049.59;5067695;28;20052;-22
2021/03/24 09:50:08;;;;;;;10.93;6.53;;;;;;;2.58;71.31;100049.06;5067841;28;20040;-23
2021/03/24 09:52:53;;;;;;;8.32;5.55;;;;;;;2.71;69.77;100061.72;5067506;28;20078;-22
2021/03/24 09:55:28;;;;;;;13.13;8.43;;;;;;;3.15;73.26;100074.44;5067339;28;20025;-22
2021/03/24 09:58:12;;;;;;;13.20;8.88;;;;;;;3.12;72.23;100066.03;5067677;28;20115;-22
2021/03/24 10:01:08;;;;;;;9.07;5.03;;;;;;;2.83;72.02;100061.38;5067477;28;20028;-22
2021/03/24 10:04:06;;;;;;;9.27;4.85;;;;;;;2.68;70.80;100069.97;5055095;28;20053;-23
2021/03/24 10:06:53;;;;;;;8.27;4.82;;;;;;;2.77;72.89;100076.03;5067323;28;20025;-22
2021/03/24 10:09:25;;;;;;;9.43;4.95;;;;;;;3.27;71.45;100087.22;5067166;28;20067;-22
2021/03/24 10:11:56;;;;;;;6.55;4.65;;;;;;;3.10;70.28;100063.56;5067624;28;20032;-22
2021/03/24 10:14:53;;;;;;;6.95;4.10;;;;;;;3.42;67.55;100059.16;5066140;28;20545;-21
2021/03/24 10:17:32;;;;;;;10.13;5.80;;;;;;;3.69;65.02;100078.16;5049041;28;20522;-22
2021/03/24 10:20:04;;;;;;;7.30;4.28;;;;;;;3.98;62.74;100075.66;5049733;28;20090;-21
2021/03/24 10:22:43;;;;;;;7.35;4.38;;;;;;;3.80;69.14;100072.47;5066338;28;20048;-22
2021/03/24 10:25:21;;;;;;;7.90;4.50;;;;;;;4.30;65.32;100080.88;5050730;28;20042;-23
2021/03/24 10:27:48;;;;;;;6.03;3.85;;;;;;;3.80;61.02;100062.75;5050503;28;20060;-23
2021/03/24 10:30:14;;;;;;;7.40;4.45;;;;;;;4.25;65.67;100086.69;5065707;28;20466;-22
2021/03/24 10:32:43;;;;;;;6.55;4.07;;;;;;;4.15;65.69;100067.63;5066947;28;20056;-22
2021/03/24 10:35:18;;;;;;;11.43;6.30;;;;;;;4.27;64.76;100089.97;5049157;28;20116;-22
2021/03/24 10:37:57;;;;;;;6.05;3.65;;;;;;;4.50;58.73;100068.81;5067083;28;20032;-22
2021/03/24 10:40:31;;;;;;;7.45;4.43;;;;;;;4.30;61.67;100052.66;5048794;28;20028;-22
2021/03/24 10:43:03;;;;;;;5.55;3.75;;;;;;;4.52;61.26;100066.81;5050896;28;20025;-22
2021/03/24 10:45:32;;;;;;;6.30;4.00;;;;;;;5.11;59.40;100073.97;5071083;28;20032;-22
2021/03/24 10:48:16;;;;;;;7.82;4.30;;;;;;;5.64;61.08;100056.09;5069805;28;20047;-21
2021/03/24 10:51:15;;;;;;;7.75;4.18;;;;;;;5.59;59.04;100073.53;5071331;28;20034;-22
2021/03/24 10:53:41;;;;;;;5.57;3.55;;;;;;;5.67;58.94;100065.47;5069624;28;20036;-22
2021/03/24 10:56:10;;;;;;;5.65;3.60;;;;;;;5.72;57.44;100072.84;5070805;28;20071;-23
2021/03/24 10:58:49;;;;;;;5.75;4.07;;;;;;;5.93;57.51;100075.53;5071093;28;20025;-22
2021/03/24 11:01:25;;;;;;;7.78;3.10;;;;;;;6.18;53.68;100060.13;5069166;28;20037;-22
2021/03/24 11:03:56;;;;;;;7.85;3.67;;;;;;;6.06;58.98;100058.19;5069450;28;20079;-22
2021/03/24 11:06:25;;;;;;;13.25;11.27;;;;;;;6.32;56.66;100066.34;5069519;28;20400;-22
2021/03/24 11:09:05;;;;;;;7.18;3.55;;;;;;;6.70;54.01;100070.50;5053079;28;20033;-22
2021/03/24 11:12:10;;;;;;;6.68;3.88;;;;;;;6.88;52.10;100054.13;5052835;28;20029;-22
2021/03/24 11:14:59;;;;;;;15.38;8.85;;;;;;;6.49;49.71;100068.72;5068589;28;20045;-22
2021/03/24 11:17:32;;;;;;;5.95;3.08;;;;;;;6.52;46.59;100073.63;5059815;28;20118;-22
2021/03/24 11:20:05;;;;;;;17.40;9.82;;;;;;;6.54;54.46;100072.44;5069252;28;20041;-24
2021/03/24 11:22:37;;;;;;;7.28;3.78;;;;;;;6.47;55.27;100070.75;5052958;28;20024;-22
2021/03/24 11:25:17;;;;;;;10.25;5.53;;;;;;;6.31;52.42;100048.81;5052642;28;20024;-21
2021/03/24 11:27:53;;;;;;;15.07;9.50;;;;;;;6.30;51.63;100065.72;5070477;28;20032;-22
2021/03/24 11:30:38;;;;;;;9.80;5.65;;;;;;;5.52;59.63;100084.03;5052682;28;20034;-22
2021/03/24 11:33:09;;;;;;;6.70;4.22;;;;;;;3.83;61.17;100078.22;5069370;28;20882;-22
2021/03/24 11:35:38;;;;;;;6.80;3.90;;;;;;;3.54;63.70;100073.63;5069696;28;20025;-21
2021/03/24 11:38:09;;;;;;;;;;;;;;;3.26;62.71;100077.69;5070668;28;20056;-22
2021/03/24 11:41:09;;;;;;;7.95;5.10;;;;;;;3.52;62.24;100053.69;5070145;28;19999;-22
2021/03/24 11:43:37;;;;;;;5.93;3.75;;;;;;;4.10;60.74;100048.84;5035778;28;20048;-22
2021/03/24 11:46:20;;;;;;;8.65;5.05;;;;;;;4.61;58.78;100081.56;5068675;28;20376;-22
2021/03/24 11:48:59;;;;;;;13.27;7.25;;;;;;;4.79;58.13;100056.66;5068756;28;20565;-22
2021/03/24 11:51:44;;;;;;;6.68;4.15;;;;;;;4.77;55.92;100063.94;5068509;28;20089;-23
2021/03/24 11:54:29;;;;;;;8.90;4.97;;;;;;;4.59;57.47;100043.13;5069844;28;20040;-22
2021/03/24 11:57:32;;;;;;;9.10;4.88;;;;;;;4.85;57.79;100063.03;5068624;28;20484;-21
2021/03/24 12:00:07;;;;;;;8.63;4.57;;;;;;;4.29;57.76;100035.19;5069828;28;20033;-22
2021/03/24 12:03:11;;;;;;;11.93;6.45;;;;;;;3.67;58.07;100088.03;5077410;28;20087;-21
2021/03/24 12:06:37;;;;;;;10.23;6.40;;;;;;;3.59;60.56;100105.53;5061014;28;20097;-22
2021/03/24 12:09:22;;;;;;;6.60;3.53;;;;;;;3.60;61.14;100083.47;5007540;28;20033;-22
2021/03/24 12:11:48;;;;;;;24.88;12.02;;;;;;;3.53;59.45;100076.41;4991037;28;20124;-22